Time;durP1;ratioP1;P1;durP2;ratioP2;P2;SDS_P1;SDS_P2;PMS_P1;PMS_P2;Temp;Humidity;BMP_temperature;BMP_pressure;BME280_temperature;BME280_humidity;BME280_pressure;Samples;Min_cycle;Max_cycle;Signal;HPM_P1;HPM_P2
2021/08/26 00:00:14;;;;;;;8.45;7.40;;;;;;;19.67;61.22;98608.25;5113523;28;20028;-49
2021/08/26 00:05:44;;;;;;;6.88;3.60;;;;;;;19.75;60.02;98599.78;5114283;28;20104;-49
2021/08/26 00:08:11;;;;;;;4.63;4.20;;;;;;;19.20;61.04;98595.81;5113912;28;20100;-49
2021/08/26 00:10:38;;;;;;;5.35;4.50;;;;;;;18.69;62.40;98602.41;5113647;28;20115;-49
2021/08/26 00:13:06;;;;;;;11.07;9.90;;;;;;;18.48;63.24;98598.00;5080114;28;20040;-50
2021/08/26 00:15:35;;;;;;;11.15;10.00;;;;;;;18.70;63.45;98601.34;5072929;28;20021;-49
2021/08/26 00:18:03;;;;;;;18.98;17.30;;;;;;;18.95;62.96;98599.94;5072888;28;20142;-50
2021/08/26 00:20:29;;;;;;;19.55;17.60;;;;;;;19.07;62.09;98597.06;5072826;28;20028;-50
2021/08/26 00:22:55;;;;;;;18.25;16.58;;;;;;;19.05;61.93;98599.19;5072648;28;20113;-49
2021/08/26 00:25:20;;;;;;;32.10;29.08;;;;;;;19.03;62.09;98598.66;5072678;28;20106;-49
2021/08/26 00:27:46;;;;;;;13.27;11.98;;;;;;;19.05;62.23;98594.66;5072659;28;20032;-49
2021/08/26 00:30:12;;;;;;;22.25;20.02;;;;;;;19.20;61.85;98591.31;5071283;28;20091;-50
2021/08/26 00:32:38;;;;;;;15.18;13.75;;;;;;;19.41;61.56;98592.19;5072589;28;20031;-50
2021/08/26 00:35:04;;;;;;;7.30;4.00;;;;;;;19.46;61.00;98594.88;5071179;28;20024;-50
2021/08/26 00:37:30;;;;;;;43.67;39.78;;;;;;;19.31;60.98;98587.59;5072517;28;20032;-50
2021/08/26 00:39:56;;;;;;;14.02;12.52;;;;;;;19.27;61.14;98593.72;5072447;28;20021;-50
2021/08/26 00:42:23;;;;;;;15.18;11.77;;;;;;;19.05;62.06;98594.66;5071113;28;20024;-49
2021/08/26 00:44:48;;;;;;;8.52;6.60;;;;;;;19.18;61.82;98596.09;5072322;28;20025;-50
2021/08/26 00:47:14;;;;;;;8.88;7.30;;;;;;;19.44;61.50;98597.00;5070959;28;20029;-50
2021/08/26 00:49:40;;;;;;;9.85;8.82;;;;;;;19.50;60.73;98597.81;5070977;28;20520;-49
2021/08/26 00:52:11;;;;;;;9.80;8.18;;;;;;;19.20;61.38;98601.16;5072196;28;20513;-50
2021/08/26 00:54:37;;;;;;;5.97;4.00;;;;;;;18.90;61.75;98592.72;5072254;28;20033;-49
2021/08/26 00:57:03;;;;;;;8.75;6.85;;;;;;;18.79;62.52;98596.38;5070839;28;20028;-50
2021/08/26 00:59:31;;;;;;;13.38;7.40;;;;;;;19.05;62.42;98600.00;5072166;28;20506;-50
2021/08/26 01:02:13;;;;;;;9.70;8.52;;;;;;;19.36;61.55;98606.28;5072116;28;20050;-49
2021/08/26 01:04:52;;;;;;;11.52;7.25;;;;;;;19.44;61.03;98594.34;5072016;28;20025;-50
2021/08/26 01:07:32;;;;;;;7.15;3.50;;;;;;;19.32;60.72;98599.88;5070730;28;20036;-50
2021/08/26 01:10:03;;;;;;;7.57;4.00;;;;;;;18.90;61.54;98597.25;5071951;28;20032;-50
2021/08/26 01:12:30;;;;;;;13.02;7.35;;;;;;;18.44;62.52;98594.25;5084476;28;20047;-49
2021/08/26 01:14:56;;;;;;;10.00;5.40;;;;;;;18.19;63.57;98594.81;5112507;28;20103;-50
2021/08/26 01:17:29;;;;;;;6.88;4.18;;;;;;;18.16;63.62;98591.59;5112478;28;20111;-50
2021/08/26 01:20:01;;;;;;;6.93;5.25;;;;;;;17.87;64.39;98584.97;5094186;28;20032;-49
2021/08/26 01:22:28;;;;;;;5.78;4.68;;;;;;;17.53;65.11;98587.75;5112356;28;20454;-49
2021/08/26 01:24:58;;;;;;;30.95;27.67;;;;;;;17.29;65.93;98592.50;5112279;28;20061;-49
2021/08/26 01:28:04;;;;;;;54.35;49.45;;;;;;;17.51;66.26;98584.56;5112209;28;20031;-49
2021/08/26 01:30:33;;;;;;;15.05;9.85;;;;;;;17.94;65.31;98590.88;5111834;28;20040;-49
2021/08/26 01:33:03;;;;;;;18.02;16.17;;;;;;;18.30;64.53;98578.72;5112275;28;20440;-49
2021/08/26 01:35:30;;;;;;;7.32;5.18;;;;;;;18.62;63.62;98577.09;5110882;28;20055;-49
2021/08/26 01:37:57;;;;;;;10.70;6.85;;;;;;;18.75;62.74;98579.31;5112150;28;20028;-50
2021/08/26 01:40:38;;;;;;;5.20;4.03;;;;;;;18.75;62.54;98580.13;5112185;28;20027;-49
2021/08/26 01:43:12;;;;;;;9.27;6.30;;;;;;;18.67;62.69;98577.13;5093823;28;20055;-49
2021/08/26 01:45:46;;;;;;;17.92;12.65;;;;;;;18.76;62.56;98576.41;5093837;28;20508;-50
2021/08/26 01:48:13;;;;;;;9.45;6.40;;;;;;;18.94;61.96;98583.19;5112186;28;20436;-50
2021/08/26 01:50:39;;;;;;;12.23;10.98;;;;;;;18.97;61.83;98579.19;5112101;28;20016;-49
2021/08/26 01:53:05;;;;;;;33.28;29.70;;;;;;;19.11;61.45;98579.53;5112014;28;20031;-50
2021/08/26 01:55:31;;;;;;;8.75;7.10;;;;;;;19.23;61.19;98568.69;5112015;28;20074;-49
2021/08/26 01:58:00;;;;;;;9.95;8.80;;;;;;;18.99;61.21;98577.09;5093738;28;20040;-49
2021/08/26 02:00:26;;;;;;;8.15;6.15;;;;;;;18.82;61.40;98579.13;5111964;28;20497;-49
2021/08/26 02:02:51;;;;;;;7.63;4.97;;;;;;;18.72;61.83;98575.31;5093591;28;20020;-49
2021/08/26 02:05:17;;;;;;;11.57;10.43;;;;;;;18.64;61.91;98583.75;5111935;28;20024;-49
2021/08/26 02:07:45;;;;;;;17.05;15.27;;;;;;;18.45;62.21;98574.56;5110656;28;20024;-49
2021/08/26 02:10:11;;;;;;;24.58;22.10;;;;;;;18.31;62.80;98574.19;5112004;28;20110;-49
2021/08/26 02:12:37;;;;;;;5.18;4.68;;;;;;;18.20;62.73;98583.16;5110336;28;20577;-49
2021/08/26 02:15:03;;;;;;;8.60;4.07;;;;;;;17.89;63.37;98581.00;5111852;28;20019;-49
2021/08/26 02:17:29;;;;;;;7.75;4.60;;;;;;;17.49;64.31;98584.78;5093568;28;20115;-49
2021/08/26 02:19:55;;;;;;;7.90;4.63;;;;;;;17.15;65.58;98584.13;5111813;28;20111;-49
2021/08/26 02:22:20;;;;;;;7.30;5.50;;;;;;;17.05;66.46;98589.28;5112082;28;20094;-49
2021/08/26 02:24:46;;;;;;;9.95;8.23;;;;;;;17.21;66.44;98585.00;5097270;28;20023;-50
2021/08/26 02:27:12;;;;;;;36.97;33.17;;;;;;;17.39;66.03;98582.03;5097247;28;20042;-49
2021/08/26 02:29:37;;;;;;;16.40;14.85;;;;;;;17.44;65.60;98574.13;5115672;28;20094;-49
2021/08/26 02:32:03;;;;;;;6.07;5.30;;;;;;;17.28;65.73;98583.72;5115559;28;20457;-49
2021/08/26 02:34:29;;;;;;;8.18;4.90;;;;;;;16.89;66.77;98582.97;5097190;28;20038;-49
2021/08/26 02:36:55;;;;;;;11.70;4.90;;;;;;;16.60;67.56;98579.59;5115492;28;20027;-49
2021/08/26 02:39:20;;;;;;;5.60;4.50;;;;;;;16.40;68.47;98577.41;5097120;28;20393;-52
2021/08/26 02:41:46;;;;;;;6.63;4.60;;;;;;;16.25;69.00;98586.72;5115443;28;20027;-52
2021/08/26 02:44:12;;;;;;;10.82;7.38;;;;;;;16.26;69.15;98588.34;5115253;28;20507;-52
2021/08/26 02:46:37;;;;;;;37.03;31.63;;;;;;;16.57;68.64;98578.22;5115280;28;20028;-52
2021/08/26 02:49:03;;;;;;;10.93;5.40;;;;;;;16.82;67.81;98580.50;5115290;28;20103;-52
2021/08/26 02:51:29;;;;;;;8.70;4.32;;;;;;;16.88;67.33;98571.56;5096858;28;20485;-52
2021/08/26 02:53:54;;;;;;;7.63;4.60;;;;;;;17.00;67.37;98575.94;5115150;28;20053;-52
2021/08/26 02:56:20;;;;;;;9.65;5.43;;;;;;;17.16;66.99;98569.78;5115136;28;20448;-49
2021/08/26 02:58:46;;;;;;;8.45;5.88;;;;;;;17.21;66.64;98572.53;5115083;28;20090;-49
2021/08/26 03:01:11;;;;;;;12.00;8.60;;;;;;;17.32;66.62;98568.94;5097004;28;20035;-49
2021/08/26 03:03:37;;;;;;;7.80;4.97;;;;;;;17.55;65.75;98569.75;5114952;28;20019;-49
2021/08/26 03:06:03;;;;;;;7.80;4.40;;;;;;;17.69;65.30;98565.66;5114858;28;20032;-49
2021/08/26 03:08:31;;;;;;;6.50;4.18;;;;;;;17.86;64.55;98564.78;5114879;28;20019;-49
2021/08/26 03:10:56;;;;;;;14.07;12.35;;;;;;;18.03;64.66;98565.47;5096521;28;20031;-49
2021/08/26 03:13:22;;;;;;;12.13;6.85;;;;;;;18.40;63.72;98570.03;5114637;28;20574;-49
2021/08/26 03:15:48;;;;;;;43.13;38.47;;;;;;;18.50;63.00;98566.66;5114750;28;20103;-50
2021/08/26 03:18:13;;;;;;;11.93;8.23;;;;;;;18.61;62.56;98567.50;5114761;28;20024;-48
2021/08/26 03:20:40;;;;;;;13.98;5.72;;;;;;;18.93;61.96;98564.81;5096330;28;20024;-49
2021/08/26 03:23:06;;;;;;;11.18;7.82;;;;;;;19.13;60.95;98569.44;5114547;28;20031;-50
2021/08/26 03:25:33;;;;;;;20.90;7.25;;;;;;;19.25;60.37;98566.56;5114582;28;20016;-49
2021/08/26 03:27:58;;;;;;;7.63;4.20;;;;;;;19.30;59.88;98564.75;5114740;28;20397;-50
2021/08/26 03:30:24;;;;;;;7.40;4.00;;;;;;;19.13;59.84;98566.78;5096103;28;20020;-50
2021/08/26 03:32:50;;;;;;;14.75;5.82;;;;;;;19.10;60.39;98568.09;5096094;28;20023;-49
2021/08/26 03:35:16;;;;;;;9.30;3.90;;;;;;;19.13;59.84;98559.59;5095319;28;20030;-49
2021/08/26 03:37:41;;;;;;;7.28;4.70;;;;;;;18.95;60.23;98554.72;5114327;28;20020;-49
2021/08/26 03:40:07;;;;;;;32.40;22.88;;;;;;;18.86;60.47;98554.41;5114274;28;20060;-49
2021/08/26 03:42:33;;;;;;;9.23;5.38;;;;;;;18.81;60.79;98558.91;5114226;28;20034;-49
2021/08/26 03:44:59;;;;;;;8.50;4.60;;;;;;;18.54;60.84;98563.22;5114116;28;20027;-49
2021/08/26 03:47:28;;;;;;;7.88;4.20;;;;;;;18.28;61.63;98564.09;5095781;28;20055;-49
2021/08/26 03:49:53;;;;;;;6.68;4.22;;;;;;;18.14;61.93;98548.56;5095718;28;20012;-49
2021/08/26 03:52:19;;;;;;;12.63;4.75;;;;;;;18.00;62.27;98552.69;5114002;28;20020;-49
2021/08/26 03:54:45;;;;;;;6.90;4.00;;;;;;;17.88;62.56;98544.09;5095680;28;20032;-49
2021/08/26 03:57:10;;;;;;;9.95;5.70;;;;;;;17.86;62.92;98543.53;5113980;28;20027;-50
2021/08/26 03:59:36;;;;;;;8.05;4.65;;;;;;;17.84;62.91;98540.34;5113887;28;20069;-49
2021/08/26 04:02:02;;;;;;;30.92;27.88;;;;;;;17.77;63.13;98535.19;5113818;28;20371;-49
2021/08/26 04:04:28;;;;;;;13.60;5.72;;;;;;;17.93;63.13;98536.19;5113660;28;20024;-49
2021/08/26 04:06:53;;;;;;;6.60;4.13;;;;;;;17.90;62.59;98541.97;5113690;28;20103;-49
2021/08/26 04:09:19;;;;;;;6.30;5.10;;;;;;;17.40;63.21;98548.34;5095417;28;20016;-49
2021/08/26 04:11:45;;;;;;;10.02;5.68;;;;;;;16.86;64.94;98557.75;5095079;28;20030;-50
2021/08/26 04:14:10;;;;;;;12.05;5.72;;;;;;;16.41;66.75;98563.16;5113640;28;20020;-49
2021/08/26 04:16:36;;;;;;;11.32;5.45;;;;;;;16.09;68.46;98563.69;5113542;28;20080;-52
2021/08/26 04:19:02;;;;;;;7.55;5.68;;;;;;;15.86;69.06;98573.34;5113464;28;20016;-50
2021/08/26 04:21:28;;;;;;;7.60;5.22;;;;;;;15.75;69.86;98576.84;5113394;28;20489;-50
2021/08/26 04:23:53;;;;;;;14.38;6.70;;;;;;;15.62;69.99;98575.25;5113350;28;20020;-50
2021/08/26 04:26:19;;;;;;;9.38;4.97;;;;;;;15.56;70.10;98584.94;5095050;28;20500;-49
2021/08/26 04:28:45;;;;;;;9.70;8.68;;;;;;;15.69;70.52;98577.75;5094957;28;20488;-50
2021/08/26 04:31:10;;;;;;;9.23;7.50;;;;;;;16.10;70.03;98584.63;5094934;28;20023;-50
2021/08/26 04:33:36;;;;;;;28.33;25.48;;;;;;;16.55;68.76;98583.75;5113218;28;20388;-50
2021/08/26 04:36:02;;;;;;;8.07;6.10;;;;;;;16.84;67.91;98583.72;5111811;28;20023;-50
2021/08/26 04:38:27;;;;;;;12.25;5.05;;;;;;;17.22;66.93;98579.41;5094855;28;20081;-50
2021/08/26 04:40:53;;;;;;;6.95;4.55;;;;;;;17.46;65.80;98579.97;5113040;28;20065;-50
2021/08/26 04:43:19;;;;;;;9.88;4.07;;;;;;;17.70;65.11;98575.19;5113001;28;20528;-50
2021/08/26 04:45:45;;;;;;;6.22;3.97;;;;;;;18.01;63.93;98578.22;5112456;28;20024;-50
2021/08/26 04:48:10;;;;;;;8.48;4.80;;;;;;;17.80;63.25;98586.97;5112543;28;20099;-50
2021/08/26 04:50:36;;;;;;;9.40;4.65;;;;;;;17.52;64.08;98583.50;5112938;28;20490;-50
2021/08/26 04:53:02;;;;;;;9.85;4.78;;;;;;;17.39;64.61;98589.97;5112874;28;20026;-50
2021/08/26 04:55:28;;;;;;;5.70;4.63;;;;;;;17.40;64.59;98588.91;5094436;28;20400;-49
2021/08/26 04:57:53;;;;;;;8.75;4.80;;;;;;;17.36;64.56;98591.28;5112804;28;20016;-50
2021/08/26 05:00:19;;;;;;;9.20;4.63;;;;;;;17.30;65.12;98594.91;5112737;28;20499;-50
2021/08/26 05:02:45;;;;;;;17.92;6.18;;;;;;;17.50;65.28;98597.00;5094341;28;20031;-50
2021/08/26 05:05:11;;;;;;;12.43;5.10;;;;;;;17.84;64.26;98593.44;5094300;28;20100;-50
2021/08/26 05:07:36;;;;;;;16.63;6.15;;;;;;;18.05;63.79;98600.56;5094336;28;20027;-50
2021/08/26 05:10:03;;;;;;;14.32;5.00;;;;;;;18.30;63.30;98596.53;5094259;28;20028;-50
2021/08/26 05:12:30;;;;;;;12.15;5.28;;;;;;;18.55;62.51;98601.22;5112076;28;20043;-50
2021/08/26 05:14:56;;;;;;;8.32;4.90;;;;;;;18.73;62.66;98597.38;5112468;28;20038;-50
2021/08/26 05:17:22;;;;;;;10.32;6.13;;;;;;;18.46;63.12;98600.09;5112451;28;20032;-50
2021/08/26 05:19:50;;;;;;;8.27;4.90;;;;;;;18.03;64.04;98593.88;5094110;28;20024;-50
2021/08/26 05:22:16;;;;;;;11.88;5.35;;;;;;;17.60;65.19;98595.53;5094117;28;20420;-50
2021/08/26 05:24:42;;;;;;;52.25;47.17;;;;;;;17.68;67.78;98595.88;5094029;28;20556;-50
2021/08/26 05:27:08;;;;;;;13.50;7.38;;;;;;;18.14;67.08;98604.34;5110986;28;20511;-50
2021/08/26 05:29:35;;;;;;;13.48;4.70;;;;;;;18.52;65.09;98594.56;5094024;28;20016;-50
2021/08/26 05:32:01;;;;;;;14.77;8.95;;;;;;;18.42;63.57;98594.50;5112287;28;20053;-50
2021/08/26 05:34:27;;;;;;;20.42;16.85;;;;;;;18.17;64.04;98598.53;5112280;28;20064;-50
2021/08/26 05:36:53;;;;;;;26.27;15.02;;;;;;;18.01;63.98;98594.13;5112192;28;20393;-50
2021/08/26 05:39:19;;;;;;;30.23;21.27;;;;;;;17.85;64.32;98595.84;5112278;28;20423;-50
2021/08/26 05:41:44;;;;;;;81.63;72.50;;;;;;;17.94;64.68;98593.53;5112088;28;20027;-49
2021/08/26 05:44:14;;;;;;;67.60;61.35;;;;;;;18.35;64.26;98588.56;5112110;28;20102;-50
2021/08/26 05:46:40;;;;;;;257.27;229.25;;;;;;;18.80;63.03;98594.53;5112051;28;20020;-50
2021/08/26 05:49:05;;;;;;;24.20;14.57;;;;;;;19.23;61.97;98601.41;5110760;28;20028;-50
2021/08/26 05:51:31;;;;;;;17.75;9.65;;;;;;;19.54;61.25;98596.25;5112102;28;20070;-50
2021/08/26 05:53:57;;;;;;;162.50;146.98;;;;;;;20.11;59.89;98602.53;5112054;28;20024;-50
2021/08/26 05:56:23;;;;;;;20.48;17.00;;;;;;;20.38;58.35;98607.59;5112055;28;20019;-50
2021/08/26 05:58:48;;;;;;;9.40;4.80;;;;;;;20.06;58.22;98597.16;5113513;28;20024;-50
2021/08/26 06:01:14;;;;;;;49.53;44.45;;;;;;;19.98;61.62;98601.19;5116152;28;20106;-50
2021/08/26 06:03:40;;;;;;;20.73;14.38;;;;;;;19.88;62.97;98595.81;5116102;28;20020;-50
2021/08/26 06:06:05;;;;;;;16.20;13.70;;;;;;;19.71;63.53;98602.16;5114719;28;20507;-50
2021/08/26 06:08:34;;;;;;;84.25;77.70;;;;;;;19.54;64.02;98601.56;5114735;28;20027;-50
2021/08/26 06:11:00;;;;;;;33.40;27.48;;;;;;;19.50;63.66;98606.59;5116006;28;20427;-50
2021/08/26 06:13:26;;;;;;;22.13;20.00;;;;;;;19.56;63.85;98594.13;5115724;28;20138;-50
2021/08/26 06:15:51;;;;;;;274.73;235.75;;;;;;;19.73;63.53;98593.91;5115851;28;20019;-50
2021/08/26 06:18:18;;;;;;;446.05;389.52;;;;;;;20.05;62.56;98592.91;5097537;28;20019;-51
2021/08/26 06:20:44;;;;;;;830.88;613.67;;;;;;;20.44;61.02;98598.53;5115824;28;20151;-50
2021/08/26 06:23:10;;;;;;;438.15;358.30;;;;;;;20.74;59.72;98591.59;5115689;28;20032;-50
2021/08/26 06:25:35;;;;;;;523.38;433.63;;;;;;;20.73;59.16;98601.47;5115704;28;20026;-50
2021/08/26 06:28:01;;;;;;;1183.22;798.60;;;;;;;21.11;58.46;98601.94;5114396;28;20031;-50
2021/08/26 06:30:27;;;;;;;104.88;93.63;;;;;;;21.45;56.05;98600.50;5115645;28;20507;-50
2021/08/26 06:32:53;;;;;;;42.70;35.53;;;;;;;21.13;55.87;98596.34;5115585;28;20023;-50
2021/08/26 06:35:19;;;;;;;22.92;20.42;;;;;;;20.56;56.36;98606.25;5115504;28;20092;-50
2021/08/26 06:37:45;;;;;;;20.98;18.73;;;;;;;20.11;57.63;98611.31;5115483;28;20042;-50
2021/08/26 06:40:11;;;;;;;13.07;9.57;;;;;;;19.92;58.29;98607.53;5115483;28;20015;-50
2021/08/26 06:42:37;;;;;;;26.50;24.13;;;;;;;19.70;58.77;98607.75;5115405;28;20057;-49
2021/08/26 06:45:04;;;;;;;10.68;8.35;;;;;;;19.35;59.57;98612.63;5115299;28;20437;-50
2021/08/26 06:47:29;;;;;;;10.40;7.57;;;;;;;19.25;60.01;98611.81;5096909;28;20807;-50
2021/08/26 06:49:55;;;;;;;30.65;27.42;;;;;;;19.71;60.11;98612.03;5115279;28;20495;-50
2021/08/26 06:52:21;;;;;;;96.90;87.22;;;;;;;20.45;58.64;98613.47;5115146;28;20143;-50
2021/08/26 06:54:46;;;;;;;25.02;18.73;;;;;;;21.21;56.82;98605.63;5115188;28;20055;-50
2021/08/26 06:57:12;;;;;;;17.52;13.32;;;;;;;21.82;55.08;98610.75;5115067;28;20093;-50
2021/08/26 06:59:38;;;;;;;40.15;36.20;;;;;;;22.17;53.65;98603.56;5113716;28;20493;-50
2021/08/26 07:02:04;;;;;;;20.63;12.00;;;;;;;22.34;53.27;98604.03;5115065;28;20443;-50
2021/08/26 07:04:29;;;;;;;37.53;23.55;;;;;;;22.82;52.33;98599.84;5114929;28;20056;-50
2021/08/26 07:06:55;;;;;;;14.60;6.10;;;;;;;23.03;51.42;98605.84;5114944;28;20028;-50
2021/08/26 07:09:22;;;;;;;48.40;42.38;;;;;;;23.03;51.62;98601.28;5095498;28;20059;-50
2021/08/26 07:11:48;;;;;;;27.25;14.38;;;;;;;23.19;51.13;98609.94;5096380;28;20023;-50
2021/08/26 07:14:14;;;;;;;16.02;10.25;;;;;;;23.23;50.89;98610.97;5114604;28;20073;-50
2021/08/26 07:16:40;;;;;;;36.70;32.47;;;;;;;23.17;50.75;98608.63;5114722;28;20024;-50
2021/08/26 07:19:05;;;;;;;15.50;6.97;;;;;;;22.98;50.93;98616.56;5114687;28;20083;-50
2021/08/26 07:21:31;;;;;;;22.10;18.10;;;;;;;22.85;51.29;98612.69;5114654;28;20405;-50
2021/08/26 07:23:57;;;;;;;14.18;10.93;;;;;;;23.07;50.71;98606.88;5114564;28;20084;-50
2021/08/26 07:26:23;;;;;;;19.45;13.07;;;;;;;23.41;50.69;98612.09;5114530;28;20019;-50
2021/08/26 07:28:49;;;;;;;9.07;6.07;;;;;;;23.81;49.60;98612.69;5114546;28;20398;-50
2021/08/26 07:31:15;;;;;;;39.05;35.63;;;;;;;23.92;49.02;98606.09;5114444;28;20019;-50
2021/08/26 07:33:41;;;;;;;17.60;11.52;;;;;;;23.95;48.86;98609.31;5114424;28;20035;-50
2021/08/26 07:36:06;;;;;;;125.20;114.75;;;;;;;24.11;48.63;98606.09;5114368;28;20054;-50
2021/08/26 07:38:32;;;;;;;19.85;16.42;;;;;;;24.31;48.21;98601.50;5114389;28;20122;-50
2021/08/26 07:40:58;;;;;;;10.80;6.72;;;;;;;24.47;48.01;98600.16;5114262;28;20533;-50
2021/08/26 07:43:25;;;;;;;9.65;4.63;;;;;;;24.69;47.60;98601.44;5095854;28;20027;-50
2021/08/26 07:45:54;;;;;;;7.53;4.45;;;;;;;25.00;46.71;98598.19;5114090;28;20058;-50
2021/08/26 07:48:21;;;;;;;83.63;76.15;;;;;;;25.02;46.73;98596.00;5114169;28;20370;-50
2021/08/26 07:50:48;;;;;;;15.15;12.98;;;;;;;25.07;46.95;98601.28;5114375;28;20042;-50
2021/08/26 07:53:15;;;;;;;16.13;5.88;;;;;;;24.98;46.47;98603.84;5114078;28;20096;-50
2021/08/26 07:55:41;;;;;;;31.10;6.65;;;;;;;24.88;47.01;98604.84;5114004;28;20019;-50
2021/08/26 07:58:07;;;;;;;13.98;5.05;;;;;;;24.85;46.81;98610.81;5114004;28;20072;-50
2021/08/26 08:00:33;;;;;;;39.35;8.07;;;;;;;25.11;46.63;98600.41;5113867;28;20020;-50
2021/08/26 08:02:58;;;;;;;20.33;5.90;;;;;;;26.13;44.50;98599.38;5095555;28;20030;-50
2021/08/26 08:05:24;;;;;;;131.27;117.75;;;;;;;26.88;43.04;98603.19;5113840;28;20031;-51
2021/08/26 08:07:50;;;;;;;23.58;13.40;;;;;;;27.63;41.23;98602.47;5095463;28;20108;-50
2021/08/26 08:10:16;;;;;;;9.88;4.10;;;;;;;28.91;38.15;98603.81;5113739;28;20401;-50
2021/08/26 08:12:43;;;;;;;26.48;21.58;;;;;;;29.47;37.11;98607.22;5113440;28;20043;-50
2021/08/26 08:15:10;;;;;;;11.05;6.03;;;;;;;29.45;36.99;98606.75;5113635;28;20024;-50
2021/08/26 08:17:36;;;;;;;5.18;3.97;;;;;;;29.56;36.35;98600.94;5113575;28;20051;-50
2021/08/26 08:20:07;;;;;;;14.48;6.70;;;;;;;29.95;35.71;98599.75;5095135;28;20433;-50
2021/08/26 08:22:33;;;;;;;7.72;4.95;;;;;;;30.39;34.89;98602.88;5113476;28;20400;-50
2021/08/26 08:24:59;;;;;;;12.13;4.18;;;;;;;30.55;35.09;98596.84;5113404;28;20016;-50
2021/08/26 08:27:26;;;;;;;21.63;15.60;;;;;;;31.75;33.12;98594.84;5113271;28;20047;-51
2021/08/26 08:29:52;;;;;;;26.88;23.35;;;;;;;32.44;32.13;98601.03;5113367;28;20104;-50
2021/08/26 08:32:18;;;;;;;4.63;4.22;;;;;;;33.40;30.55;98601.84;5113306;28;20110;-48
2021/08/26 08:34:44;;;;;;;17.45;12.38;;;;;;;34.30;29.55;98593.63;5113286;28;20374;-48
2021/08/26 08:37:09;;;;;;;19.85;17.95;;;;;;;35.11;27.83;98589.94;5113160;28;20034;-48
2021/08/26 08:39:35;;;;;;;10.27;3.72;;;;;;;35.52;26.95;98592.91;5113152;28;20080;-51
2021/08/26 08:42:01;;;;;;;4.00;3.20;;;;;;;35.48;26.93;98594.78;5113097;28;20023;-50
2021/08/26 08:44:30;;;;;;;10.65;3.90;;;;;;;35.67;26.08;98582.19;5112968;28;20104;-51
2021/08/26 08:46:58;;;;;;;7.93;2.85;;;;;;;35.75;26.19;98589.31;5112972;28;20051;-51
2021/08/26 08:49:25;;;;;;;8.73;7.53;;;;;;;35.79;26.39;98592.88;5112936;28;20015;-51
2021/08/26 08:51:54;;;;;;;90.82;79.95;;;;;;;35.87;26.36;98591.78;5112921;28;20054;-50
2021/08/26 08:54:22;;;;;;;18.60;14.25;;;;;;;36.15;25.86;98594.09;5112935;28;20015;-51
2021/08/26 08:56:48;;;;;;;12.80;7.78;;;;;;;36.33;25.77;98594.28;5112813;28;20028;-51
2021/08/26 08:59:14;;;;;;;8.98;4.63;;;;;;;36.22;25.58;98592.59;5112810;28;20091;-51
2021/08/26 09:01:53;;;;;;;4.93;3.08;;;;;;;36.35;25.05;98583.75;5112658;28;20034;-50
2021/08/26 09:04:20;;;;;;;7.18;3.63;;;;;;;36.66;24.77;98578.97;5112621;28;20572;-50
2021/08/26 09:06:50;;;;;;;6.22;2.83;;;;;;;36.63;24.97;98581.69;5112646;28;20028;-51
2021/08/26 09:09:17;;;;;;;9.18;3.50;;;;;;;36.44;25.29;98577.19;5112542;28;20424;-51
2021/08/26 09:11:51;;;;;;;33.90;22.13;;;;;;;35.61;26.24;98585.19;5112586;28;20028;-51
2021/08/26 09:14:17;;;;;;;25.98;14.25;;;;;;;36.01;26.83;98582.97;5112327;28;20451;-51
2021/08/26 09:16:47;;;;;;;12.38;8.35;;;;;;;35.98;26.01;98584.53;5112532;28;20051;-51
2021/08/26 09:19:21;;;;;;;12.88;9.48;;;;;;;35.85;26.31;98579.69;5112529;28;20503;-51
2021/08/26 09:21:49;;;;;;;;;;;;;;;36.40;26.48;98585.34;5112817;28;20024;-51
2021/08/26 09:24:15;;;;;;;7.78;3.80;;;;;;;36.42;25.92;98585.00;5112347;28;19923;-51
2021/08/26 09:26:46;;;;;;;3.70;3.25;;;;;;;36.47;24.99;98576.47;5112357;28;20094;-51
2021/08/26 09:29:12;;;;;;;9.90;4.28;;;;;;;35.95;25.58;98579.00;5112312;28;20035;-50
2021/08/26 09:31:38;;;;;;;23.38;13.77;;;;;;;36.20;25.88;98579.31;5112288;28;20023;-52
2021/08/26 09:34:16;;;;;;;6.68;4.97;;;;;;;36.54;25.50;98579.25;5111762;28;20032;-51
2021/08/26 09:36:48;;;;;;;11.98;3.35;;;;;;;36.98;24.94;98581.97;5112270;28;20035;-50
2021/08/26 09:39:17;;;;;;;27.50;12.88;;;;;;;37.03;24.50;98580.03;5112253;28;20508;-50
2021/08/26 09:41:46;;;;;;;15.40;6.13;;;;;;;36.30;24.89;98580.56;5112228;28;20513;-50
2021/08/26 09:44:17;;;;;;;8.10;4.53;;;;;;;35.46;25.86;98575.28;5112659;28;20023;-50
2021/08/26 09:46:49;;;;;;;5.72;3.40;;;;;;;36.25;25.31;98575.47;5112222;28;20031;-51
2021/08/26 09:49:19;;;;;;;8.55;6.30;;;;;;;36.85;24.38;98577.19;5112133;28;20016;-49
2021/08/26 09:52:00;;;;;;;9.32;3.67;;;;;;;37.23;23.57;98569.66;5112326;28;20106;-51
2021/08/26 09:54:32;;;;;;;38.03;14.80;;;;;;;37.80;23.21;98566.44;5093772;28;20038;-51
2021/08/26 09:56:59;;;;;;;33.90;26.33;;;;;;;38.49;22.38;98568.94;5112055;28;20042;-51
2021/08/26 10:00:07;;;;;;;10.63;4.25;;;;;;;39.00;21.75;98569.78;5111932;28;20020;-51
2021/08/26 10:02:33;;;;;;;7.40;3.35;;;;;;;38.56;22.47;98566.25;5090750;28;20035;-51
2021/08/26 10:04:59;;;;;;;20.52;6.10;;;;;;;37.66;22.70;98567.16;5111935;28;20486;-51
2021/08/26 10:07:27;;;;;;;15.77;4.97;;;;;;;36.82;24.12;98572.47;5111835;28;20020;-51
2021/08/26 10:09:54;;;;;;;11.30;3.45;;;;;;;36.08;25.10;98574.06;5111983;28;20020;-51
2021/08/26 10:12:20;;;;;;;13.27;4.47;;;;;;;36.54;25.10;98579.25;5111614;28;20577;-52
2021/08/26 10:14:50;;;;;;;6.57;3.50;;;;;;;37.42;23.89;98566.63;5111985;28;20040;-51
2021/08/26 10:17:16;;;;;;;21.77;8.77;;;;;;;37.31;23.46;98571.28;5093547;28;20024;-50
2021/08/26 10:19:42;;;;;;;15.68;8.07;;;;;;;37.03;23.58;98580.03;5111847;28;20111;-51
2021/08/26 10:22:09;;;;;;;14.38;7.68;;;;;;;37.60;22.90;98568.72;5093555;28;20545;-50
2021/08/26 10:24:35;;;;;;;38.47;34.90;;;;;;;37.89;23.10;98566.84;5111714;28;20030;-51
2021/08/26 10:27:07;;;;;;;8.05;6.18;;;;;;;38.15;22.52;98563.84;5111829;28;20157;-49
2021/08/26 10:29:35;;;;;;;3.78;3.00;;;;;;;38.66;22.26;98567.44;5111737;28;20102;-51
2021/08/26 10:32:03;;;;;;;3.70;2.85;;;;;;;38.80;20.34;98557.59;5093544;28;20131;-50
2021/08/26 10:34:31;;;;;;;4.13;2.72;;;;;;;39.20;20.48;98559.16;5111752;28;20080;-50
2021/08/26 10:36:57;;;;;;;16.27;12.88;;;;;;;39.26;19.97;98554.84;5093368;28;20118;-51
2021/08/26 10:39:26;;;;;;;8.93;7.13;;;;;;;38.63;20.50;98557.22;5110324;28;20165;-51
2021/08/26 10:41:52;;;;;;;4.53;3.10;;;;;;;37.28;22.17;98553.66;5111681;28;20068;-51
2021/08/26 10:44:18;;;;;;;9.07;7.07;;;;;;;35.72;24.10;98562.75;5095007;28;20560;-51
2021/08/26 10:46:48;;;;;;;8.10;3.67;;;;;;;35.00;25.67;98564.44;5115367;28;20118;-48
2021/08/26 10:49:16;;;;;;;8.68;4.07;;;;;;;35.80;25.08;98559.75;5115341;28;20497;-48
2021/08/26 10:51:47;;;;;;;18.42;5.55;;;;;;;36.27;24.34;98552.06;5096918;28;20024;-51
2021/08/26 10:54:32;;;;;;;14.32;8.88;;;;;;;35.09;24.95;98547.81;5115319;28;20482;-51
2021/08/26 10:57:28;;;;;;;6.43;3.33;;;;;;;33.74;26.77;98553.22;5115204;28;20161;-48
2021/08/26 10:59:54;;;;;;;6.38;3.05;;;;;;;34.04;26.70;98547.97;5115199;28;20031;-48
2021/08/26 11:02:40;;;;;;;7.22;4.03;;;;;;;34.91;26.27;98542.09;5115042;28;20023;-48
2021/08/26 11:05:39;;;;;;;9.93;6.30;;;;;;;35.76;24.98;98528.88;5115090;28;20028;-48
2021/08/26 11:08:27;;;;;;;15.93;3.40;;;;;;;36.68;23.87;98530.16;5114993;28;20054;-50
2021/08/26 11:10:54;;;;;;;21.85;19.45;;;;;;;36.11;24.60;98530.41;5114900;28;20516;-51
2021/08/26 11:13:32;;;;;;;6.25;2.60;;;;;;;35.67;24.62;98524.84;5115284;28;20161;-51
2021/08/26 11:16:26;;;;;;;15.40;6.65;;;;;;;35.37;25.08;98533.81;5114824;28;20511;-51
2021/08/26 11:18:53;;;;;;;3.90;3.00;;;;;;;35.54;24.89;98532.47;5114762;28;20034;-51
2021/08/26 11:21:40;;;;;;;7.82;2.45;;;;;;;35.85;23.85;98525.84;5114556;28;20011;-51
2021/08/26 11:24:27;;;;;;;6.85;2.67;;;;;;;35.23;24.32;98539.09;5114582;28;20024;-51
2021/08/26 11:26:54;;;;;;;4.10;2.42;;;;;;;35.94;23.51;98529.06;5100872;28;20107;-51
2021/08/26 11:29:23;;;;;;;8.02;3.00;;;;;;;36.36;22.90;98522.47;5097891;28;20462;-51
2021/08/26 11:31:54;;;;;;;12.40;3.97;;;;;;;36.44;22.96;98517.84;5114734;28;20119;-51